Time;durP1;ratioP1;P1;durP2;ratioP2;P2;SDS_P1;SDS_P2;PMS_P1;PMS_P2;Temp;Humidity;BMP_temperature;BMP_pressure;BME280_temperature;BME280_humidity;BME280_pressure;Samples;Min_cycle;Max_cycle;Signal;HPM_P1;HPM_P2
2022/04/03 00:00:23;;;;;;;4.63;1.63;;;10.60;99.90;;;;;;5028971;28;20478;-67
2022/04/03 00:02:50;;;;;;;3.30;1.43;;;10.70;99.90;;;;;;5028748;28;20585;-67
2022/04/03 00:05:19;;;;;;;4.40;1.57;;;10.70;99.90;;;;;;5028977;28;20462;-66
2022/04/03 00:07:46;;;;;;;5.13;1.47;;;10.80;99.90;;;;;;5028959;28;20451;-67
2022/04/03 00:10:14;;;;;;;5.93;1.70;;;10.90;99.90;;;;;;5028868;28;20956;-65
2022/04/03 00:12:46;;;;;;;5.40;1.53;;;11.00;99.90;;;;;;5028811;28;20487;-65
2022/04/03 00:15:15;;;;;;;4.43;1.93;;;11.00;99.90;;;;;;5029044;28;20463;-66
2022/04/03 00:17:42;;;;;;;5.17;1.90;;;10.90;99.90;;;;;;5030854;28;20482;-66
2022/04/03 00:20:11;;;;;;;4.87;1.80;;;10.90;99.90;;;;;;5032626;28;20442;-66
2022/04/03 00:22:38;;;;;;;3.73;1.33;;;11.00;99.90;;;;;;5033133;28;20489;-66
2022/04/03 00:25:06;;;;;;;4.20;1.60;;;11.10;99.90;;;;;;5032475;28;20457;-64
2022/04/03 00:27:33;;;;;;;4.80;2.10;;;10.90;99.90;;;;;;5032286;28;20451;-65
2022/04/03 00:30:01;;;;;;;3.47;1.17;;;10.80;99.90;;;;;;5032795;28;20460;-64
2022/04/03 00:32:28;;;;;;;3.40;1.30;;;10.60;99.90;;;;;;5032426;28;20458;-64
2022/04/03 00:34:55;;;;;;;4.60;1.57;;;10.70;99.90;;;;;;5032650;28;20462;-66
2022/04/03 00:37:22;;;;;;;5.63;1.27;;;10.70;99.90;;;;;;5032553;28;20454;-66
2022/04/03 00:39:50;;;;;;;3.83;1.50;;;10.60;99.90;;;;;;5032185;28;20482;-65
2022/04/03 00:42:17;;;;;;;4.50;1.63;;;10.50;99.90;;;;;;5032674;28;20780;-65
2022/04/03 00:44:44;;;;;;;4.13;1.30;;;10.40;99.90;;;;;;5032509;28;20534;-66
2022/04/03 00:47:15;;;;;;;3.40;1.50;;;10.50;99.90;;;;;;5032254;28;20458;-66
2022/04/03 00:49:42;;;;;;;3.50;1.60;;;10.40;99.90;;;;;;5031888;28;20493;-67
2022/04/03 00:52:09;;;;;;;3.47;1.33;;;10.50;99.90;;;;;;5032294;28;20450;-66
2022/04/03 00:54:37;;;;;;;3.43;1.63;;;10.50;99.90;;;;;;5032040;28;20956;-67
2022/04/03 00:57:06;;;;;;;4.30;1.90;;;10.70;99.90;;;;;;5031748;28;20451;-66
2022/04/03 00:59:34;;;;;;;4.60;2.00;;;10.70;99.90;;;;;;5032020;28;20498;-67
2022/04/03 01:02:02;;;;;;;5.57;2.17;;;10.70;99.90;;;;;;5031770;28;20457;-67
2022/04/03 01:04:31;;;;;;;10.90;2.30;;;10.90;99.90;;;;;;5031375;28;20474;-67
2022/04/03 01:06:58;;;;;;;4.77;2.10;;;11.00;99.90;;;;;;5031981;28;20458;-67
2022/04/03 01:09:26;;;;;;;4.33;2.13;;;10.90;99.90;;;;;;5032006;28;20538;-66
2022/04/03 01:11:53;;;;;;;4.60;1.77;;;11.00;99.90;;;;;;5032013;28;20509;-66
2022/04/03 01:14:31;;;;;;;5.67;2.00;;;11.00;99.90;;;;;;5031831;28;20480;-66
2022/04/03 01:16:58;;;;;;;6.67;2.40;;;10.80;99.90;;;;;;5031643;28;20474;-66
2022/04/03 01:19:25;;;;;;;5.50;2.43;;;10.70;99.90;;;;;;5031244;28;20479;-65
2022/04/03 01:21:54;;;;;;;8.20;1.83;;;10.60;99.90;;;;;;5031630;28;20936;-66
2022/04/03 01:24:22;;;;;;;5.10;1.73;;;10.50;99.90;;;;;;5031501;28;20475;-66
2022/04/03 01:26:52;;;;;;;6.53;1.40;;;10.20;99.90;;;;;;5031900;28;20809;-67
2022/04/03 01:29:19;;;;;;;3.30;1.17;;;10.00;99.90;;;;;;5031129;28;20447;-68
2022/04/03 01:31:47;;;;;;;5.23;1.87;;;9.80;99.90;;;;;;5031612;28;20463;-65
2022/04/03 01:34:15;;;;;;;5.67;1.67;;;9.60;99.90;;;;;;5031674;28;20478;-67
2022/04/03 01:36:42;;;;;;;3.90;1.50;;;9.50;99.90;;;;;;5031763;28;20450;-68
2022/04/03 01:39:10;;;;;;;4.50;1.53;;;9.60;99.90;;;;;;5030816;28;20493;-64
2022/04/03 01:41:37;;;;;;;3.63;1.40;;;9.60;99.90;;;;;;5031829;28;20450;-64
2022/04/03 01:44:07;;;;;;;9.30;1.67;;;9.50;99.90;;;;;;5031207;28;20553;-67
2022/04/03 01:46:35;;;;;;;4.30;1.47;;;9.50;99.90;;;;;;5031166;28;20458;-68
2022/04/03 01:49:02;;;;;;;3.83;1.50;;;9.40;99.90;;;;;;5030936;28;20649;-67
2022/04/03 01:51:29;;;;;;;4.40;1.67;;;9.30;99.90;;;;;;5031369;28;20474;-66
2022/04/03 01:53:56;;;;;;;4.97;1.50;;;9.30;99.90;;;;;;5030912;28;20471;-67
2022/04/03 01:56:23;;;;;;;5.93;1.47;;;9.20;99.90;;;;;;5031100;28;20451;-67
2022/04/03 01:58:50;;;;;;;4.27;1.50;;;9.20;99.90;;;;;;5030769;28;20486;-66
2022/04/03 02:01:18;;;;;;;5.57;1.10;;;9.30;99.90;;;;;;5030969;28;20461;-65
2022/04/03 02:03:46;;;;;;;4.20;1.60;;;9.30;99.90;;;;;;5030862;28;20482;-67
2022/04/03 02:06:15;;;;;;;4.77;1.40;;;9.40;99.90;;;;;;5031213;28;20551;-68
2022/04/03 02:08:42;;;;;;;5.17;1.50;;;9.50;99.90;;;;;;5030438;28;20453;-67
2022/04/03 02:11:09;;;;;;;3.53;1.30;;;9.60;99.90;;;;;;5030481;28;20454;-67
2022/04/03 02:13:37;;;;;;;4.57;1.60;;;9.50;99.90;;;;;;5030499;28;20474;-65
2022/04/03 02:16:04;;;;;;;6.10;1.67;;;9.30;99.90;;;;;;5030529;28;20660;-65
2022/04/03 02:18:33;;;;;;;5.30;1.67;;;9.50;99.90;;;;;;5030556;28;20487;-68
2022/04/03 02:21:00;;;;;;;3.93;1.27;;;9.70;99.90;;;;;;5030768;28;20779;-66
2022/04/03 02:23:27;;;;;;;4.73;1.70;;;9.70;99.90;;;;;;5030465;28;20872;-67
2022/04/03 02:25:54;;;;;;;4.57;1.33;;;9.70;99.90;;;;;;5030293;28;20462;-68
2022/04/03 02:28:21;;;;;;;7.90;1.50;;;9.60;99.90;;;;;;5030611;28;20459;-66
2022/04/03 02:30:49;;;;;;;5.23;1.50;;;9.60;99.90;;;;;;5029130;28;20457;-66
2022/04/03 02:33:16;;;;;;;4.70;1.53;;;9.60;99.90;;;;;;5030331;28;20845;-67
2022/04/03 02:35:45;;;;;;;7.00;1.50;;;9.70;99.90;;;;;;5030188;28;20454;-67
2022/04/03 02:38:15;;;;;;;6.50;1.90;;;9.70;99.90;;;;;;5029923;28;20451;-67
2022/04/03 02:40:43;;;;;;;4.57;1.40;;;9.90;99.90;;;;;;5029178;28;20451;-66
2022/04/03 02:43:10;;;;;;;4.70;2.10;;;9.80;99.90;;;;;;5030025;28;20569;-67
2022/04/03 02:45:37;;;;;;;4.10;1.57;;;9.80;99.90;;;;;;5030065;28;20454;-66
2022/04/03 02:48:05;;;;;;;3.83;1.20;;;9.90;99.90;;;;;;5029814;28;20983;-68
2022/04/03 02:50:32;;;;;;;4.70;1.50;;;9.80;99.90;;;;;;5029816;28;21005;-66
2022/04/03 02:53:01;;;;;;;6.47;1.40;;;9.80;99.90;;;;;;5029792;28;20475;-67
2022/04/03 02:55:28;;;;;;;4.00;1.57;;;9.40;99.90;;;;;;5030230;28;20451;-66
2022/04/03 02:57:55;;;;;;;4.67;1.13;;;9.60;99.90;;;;;;5030065;28;20459;-68
2022/04/03 03:00:22;;;;;;;4.27;1.60;;;9.70;99.90;;;;;;5029607;28;20490;-68
2022/04/03 03:02:51;;;;;;;7.97;1.53;;;9.90;99.90;;;;;;5029995;28;20594;-68
2022/04/03 03:05:18;;;;;;;4.80;1.63;;;9.90;99.90;;;;;;5029777;28;21004;-67
2022/04/03 03:07:46;;;;;;;4.33;1.40;;;9.80;99.90;;;;;;5029805;28;20459;-66
2022/04/03 03:10:19;;;;;;;4.53;1.60;;;9.70;99.90;;;;;;5029769;28;20470;-66
2022/04/03 03:12:47;;;;;;;5.50;1.67;;;9.70;99.90;;;;;;5029777;28;20471;-65
2022/04/03 03:15:15;;;;;;;4.57;1.70;;;9.80;99.90;;;;;;5029663;28;20861;-66
2022/04/03 03:17:42;;;;;;;3.97;1.50;;;9.80;99.90;;;;;;5029376;28;20462;-65
2022/04/03 03:20:11;;;;;;;3.83;1.27;;;9.90;99.90;;;;;;5029289;28;20482;-67
2022/04/03 03:22:38;;;;;;;3.70;1.53;;;9.90;99.90;;;;;;5028735;28;20479;-67
2022/04/03 03:25:07;;;;;;;5.20;1.77;;;9.80;99.90;;;;;;5029460;28;20447;-67
2022/04/03 03:27:38;;;;;;;4.40;1.70;;;9.80;99.90;;;;;;5029728;28;20459;-67
2022/04/03 03:30:06;;;;;;;4.43;1.57;;;9.90;99.90;;;;;;5028932;28;20857;-66
2022/04/03 03:32:33;;;;;;;4.30;1.47;;;10.00;99.90;;;;;;5029317;28;20459;-68
2022/04/03 03:35:01;;;;;;;3.80;1.30;;;10.20;99.90;;;;;;5029257;28;20517;-68
2022/04/03 03:37:28;;;;;;;8.40;2.07;;;10.30;99.90;;;;;;5028950;28;20454;-64
2022/04/03 03:39:55;;;;;;;4.67;1.60;;;10.40;99.90;;;;;;5029340;28;20517;-67
2022/04/03 03:42:22;;;;;;;4.50;1.90;;;10.40;99.90;;;;;;5028727;28;20455;-65
2022/04/03 03:44:50;;;;;;;5.10;1.80;;;10.30;99.90;;;;;;5028790;28;20558;-68
2022/04/03 03:47:18;;;;;;;5.03;1.80;;;10.30;99.90;;;;;;5029166;28;20443;-66
2022/04/03 03:49:45;;;;;;;4.03;2.00;;;10.30;99.90;;;;;;5027488;28;20848;-65
2022/04/03 03:52:12;;;;;;;3.30;1.40;;;10.50;99.90;;;;;;5028910;28;21011;-66
2022/04/03 03:54:39;;;;;;;4.00;2.13;;;10.50;99.90;;;;;;5029128;28;20459;-67
2022/04/03 03:57:06;;;;;;;5.70;1.60;;;10.40;99.90;;;;;;5028884;28;20944;-66
2022/04/03 03:59:33;;;;;;;4.53;1.90;;;10.40;99.90;;;;;;5028382;28;20486;-69
2022/04/03 04:02:04;;;;;;;5.30;2.20;;;10.20;99.90;;;;;;5028848;28;20469;-67
2022/04/03 04:04:31;;;;;;;4.73;1.90;;;10.10;99.90;;;;;;5028761;28;20525;-65
2022/04/03 04:06:58;;;;;;;4.80;1.43;;;10.00;99.90;;;;;;5028966;28;20462;-65
2022/04/03 04:09:25;;;;;;;5.73;1.37;;;10.00;99.90;;;;;;5028833;28;20948;-67
2022/04/03 04:11:52;;;;;;;3.70;1.23;;;9.80;99.90;;;;;;5028838;28;20458;-67
2022/04/03 04:14:19;;;;;;;3.50;0.90;;;9.60;99.90;;;;;;5028659;28;20482;-67
2022/04/03 04:16:46;;;;;;;3.40;0.77;;;9.60;99.90;;;;;;5029017;28;20454;-69
2022/04/03 04:19:15;;;;;;;4.60;0.97;;;9.70;99.90;;;;;;5028701;28;20494;-66
2022/04/03 04:21:43;;;;;;;3.20;0.90;;;9.60;99.90;;;;;;5028428;28;20597;-68
2022/04/03 04:24:10;;;;;;;5.93;1.30;;;9.70;99.90;;;;;;5029013;28;20474;-65
2022/04/03 04:26:37;;;;;;;7.20;1.40;;;9.90;99.90;;;;;;5028540;28;20541;-68
2022/04/03 04:29:05;;;;;;;3.20;0.70;;;10.00;99.90;;;;;;5028386;28;20534;-67
2022/04/03 04:31:32;;;;;;;7.23;3.27;;;9.80;99.90;;;;;;5029012;28;20888;-66
2022/04/03 04:33:59;;;;;;;8.60;3.13;;;9.70;99.90;;;;;;5028829;28;20474;-65
2022/04/03 04:36:28;;;;;;;5.77;2.80;;;9.60;99.90;;;;;;5027290;28;20556;-65
2022/04/03 04:38:57;;;;;;;5.07;2.40;;;9.80;99.90;;;;;;5028237;28;20458;-67
2022/04/03 04:41:25;;;;;;;5.00;2.73;;;9.90;99.90;;;;;;5028342;28;20513;-66
2022/04/03 04:43:52;;;;;;;4.87;2.83;;;9.80;99.90;;;;;;5028012;28;21081;-66
2022/04/03 04:46:20;;;;;;;5.00;2.17;;;9.70;99.90;;;;;;5028582;28;20486;-66
2022/04/03 04:48:48;;;;;;;4.60;1.80;;;9.80;99.90;;;;;;5028061;28;20506;-66
2022/04/03 04:51:16;;;;;;;4.30;2.23;;;9.80;99.90;;;;;;5028491;28;20455;-66
2022/04/03 04:53:45;;;;;;;5.00;2.37;;;9.90;99.90;;;;;;5028443;28;20477;-68
2022/04/03 04:56:12;;;;;;;4.13;2.33;;;9.90;99.90;;;;;;5028428;28;20757;-68
2022/04/03 04:58:39;;;;;;;6.63;2.13;;;9.80;99.90;;;;;;5028381;28;20447;-68
2022/04/03 05:01:06;;;;;;;5.70;2.40;;;9.90;99.90;;;;;;5028301;28;20548;-67
2022/04/03 05:03:33;;;;;;;5.73;2.83;;;10.00;99.90;;;;;;5028608;28;20485;-65
2022/04/03 05:06:01;;;;;;;4.40;2.20;;;10.00;99.90;;;;;;5031744;28;20453;-67
2022/04/03 05:08:29;;;;;;;4.40;2.17;;;9.90;99.90;;;;;;5031793;28;20458;-66
2022/04/03 05:10:58;;;;;;;9.00;2.10;;;9.90;99.90;;;;;;5031865;28;20450;-67
2022/04/03 05:13:27;;;;;;;5.27;2.20;;;10.00;99.90;;;;;;5031658;28;20469;-68
2022/04/03 05:15:55;;;;;;;7.00;3.37;;;9.90;99.90;;;;;;5032104;28;20541;-67
2022/04/03 05:18:22;;;;;;;5.10;2.63;;;10.00;99.90;;;;;;5031228;28;20516;-66
2022/04/03 05:20:50;;;;;;;6.77;3.50;;;10.10;99.90;;;;;;5030974;28;20490;-66
2022/04/03 05:23:17;;;;;;;6.50;3.57;;;10.10;99.90;;;;;;5031016;28;20481;-66
2022/04/03 05:25:44;;;;;;;6.70;3.10;;;10.20;99.90;;;;;;5031486;28;20446;-64
2022/04/03 05:28:13;;;;;;;14.00;2.17;;;10.30;99.90;;;;;;5031554;28;20451;-67
2022/04/03 05:30:40;;;;;;;7.97;2.70;;;10.20;99.90;;;;;;5031212;28;20749;-67
2022/04/03 05:33:07;;;;;;;8.17;2.30;;;10.20;99.90;;;;;;5031091;28;20475;-67
2022/04/03 05:35:34;;;;;;;3.83;1.23;;;10.10;99.90;;;;;;5031144;28;20842;-69
2022/04/03 05:38:02;;;;;;;3.30;1.13;;;9.90;99.90;;;;;;5031407;28;20459;-65
2022/04/03 05:40:29;;;;;;;3.60;0.93;;;9.90;99.90;;;;;;5031341;28;20514;-69
2022/04/03 05:42:56;;;;;;;4.27;1.00;;;10.00;99.90;;;;;;5031220;28;20513;-68
2022/04/03 05:45:25;;;;;;;3.00;0.70;;;10.20;99.90;;;;;;5031384;28;20515;-68
2022/04/03 05:47:52;;;;;;;3.20;0.80;;;10.40;99.90;;;;;;5031076;28;20566;-67
2022/04/03 05:50:20;;;;;;;2.90;0.50;;;10.40;99.90;;;;;;5030861;28;20477;-68
2022/04/03 05:52:49;;;;;;;3.30;0.80;;;10.20;99.10;;;;;;5031288;28;20828;-65
2022/04/03 05:55:17;;;;;;;3.03;0.70;;;9.90;99.90;;;;;;5031292;28;20818;-65
2022/04/03 05:57:45;;;;;;;3.67;0.60;;;10.00;99.90;;;;;;5031181;28;20450;-66
2022/04/03 06:00:13;;;;;;;6.30;0.80;;;10.10;99.90;;;;;;5031095;28;20501;-68
2022/04/03 06:02:49;;;;;;;4.10;0.60;;;10.30;99.70;;;;;;5030537;28;20462;-73
2022/04/03 06:05:17;;;;;;;3.10;0.70;;;10.10;98.40;;;;;;5031150;28;20539;-69
2022/04/03 06:07:45;;;;;;;3.20;0.60;;;10.10;98.30;;;;;;5031075;28;20451;-75
2022/04/03 06:10:13;;;;;;;4.40;0.90;;;10.00;97.40;;;;;;5030853;28;20814;-79
2022/04/03 06:12:55;;;;;;;3.57;0.77;;;9.90;98.30;;;;;;5030091;28;20463;-68
2022/04/03 06:15:25;;;;;;;3.10;0.70;;;9.90;98.60;;;;;;5030342;28;20455;-69
2022/04/03 06:17:54;;;;;;;3.20;0.80;;;9.80;99.00;;;;;;5030870;28;20764;-68
2022/04/03 06:20:22;;;;;;;3.53;0.93;;;9.90;99.10;;;;;;5030735;28;20490;-67
2022/04/03 06:22:49;;;;;;;3.03;0.70;;;10.10;99.70;;;;;;5030592;28;20478;-68
2022/04/03 06:25:16;;;;;;;6.40;0.90;;;9.80;98.70;;;;;;5030587;28;20812;-75
2022/04/03 06:27:43;;;;;;;5.93;0.90;;;9.80;98.70;;;;;;5030273;28;20973;-69
2022/04/03 06:30:11;;;;;;;3.07;0.70;;;10.00;98.50;;;;;;5030500;28;20537;-69
2022/04/03 06:32:38;;;;;;;3.77;1.00;;;9.50;97.90;;;;;;5030043;28;20474;-68
2022/04/03 06:35:08;;;;;;;2.73;0.60;;;9.70;98.60;;;;;;5030676;28;20530;-69
2022/04/03 06:37:36;;;;;;;2.80;0.63;;;9.70;98.50;;;;;;5030450;28;20578;-68
2022/04/03 06:40:04;;;;;;;4.20;1.27;;;9.90;98.80;;;;;;5030243;28;20518;-69
2022/04/03 06:42:31;;;;;;;4.90;0.80;;;10.00;97.80;;;;;;5030319;28;20584;-70
2022/04/03 06:44:59;;;;;;;2.80;0.50;;;10.10;98.10;;;;;;5030243;28;20478;-68
2022/04/03 06:47:26;;;;;;;4.10;0.97;;;9.90;97.90;;;;;;5029945;28;20458;-66
2022/04/03 06:49:54;;;;;;;3.00;0.77;;;9.70;99.30;;;;;;5029916;28;20845;-68
2022/04/03 06:52:22;;;;;;;4.70;0.80;;;9.80;99.70;;;;;;5029905;28;20455;-67
2022/04/03 06:54:49;;;;;;;5.03;0.80;;;9.40;99.60;;;;;;5029730;28;20455;-71
2022/04/03 06:57:18;;;;;;;4.03;0.70;;;9.50;99.90;;;;;;5029787;28;20458;-69
2022/04/03 06:59:46;;;;;;;3.63;0.93;;;9.40;99.90;;;;;;5029700;28;21033;-68
2022/04/03 07:02:14;;;;;;;3.20;0.60;;;9.20;99.90;;;;;;5029952;28;20455;-68
2022/04/03 07:04:41;;;;;;;3.07;0.70;;;9.20;99.90;;;;;;5030488;28;20890;-73
2022/04/03 07:07:08;;;;;;;4.83;1.30;;;9.40;99.90;;;;;;5029657;28;20455;-71
2022/04/03 07:09:41;;;;;;;2.90;0.70;;;9.70;99.90;;;;;;5029825;28;21000;-69
2022/04/03 07:12:09;;;;;;;3.63;0.90;;;9.60;99.90;;;;;;5028228;28;20454;-71
2022/04/03 07:14:36;;;;;;;3.60;0.80;;;9.60;99.90;;;;;;5029945;28;20586;-69
2022/04/03 07:17:03;;;;;;;4.47;0.80;;;9.70;99.90;;;;;;5029744;28;20514;-71
2022/04/03 07:19:31;;;;;;;3.53;1.10;;;9.70;99.90;;;;;;5029144;28;20471;-68
2022/04/03 07:21:58;;;;;;;5.43;1.13;;;9.80;99.90;;;;;;5028956;28;21057;-75
2022/04/03 07:24:25;;;;;;;3.10;1.10;;;9.80;99.90;;;;;;5029563;28;20470;-71
2022/04/03 07:26:54;;;;;;;3.67;1.00;;;9.80;99.90;;;;;;5028902;28;20462;-74
2022/04/03 07:29:22;;;;;;;3.87;1.10;;;9.80;99.90;;;;;;5029436;28;20561;-68
2022/04/03 07:31:49;;;;;;;4.20;1.33;;;9.80;99.90;;;;;;5029523;28;20487;-70
2022/04/03 07:34:16;;;;;;;3.50;1.10;;;9.80;99.90;;;;;;5029386;28;20470;-68
2022/04/03 07:36:44;;;;;;;3.63;0.97;;;10.00;99.90;;;;;;5029347;28;20958;-67
2022/04/03 07:39:12;;;;;;;4.90;0.83;;;10.20;99.90;;;;;;5029357;28;20463;-70
2022/04/03 07:41:40;;;;;;;3.67;0.70;;;10.00;99.90;;;;;;5029158;28;20890;-73
2022/04/03 07:44:09;;;;;;;3.40;0.90;;;9.80;99.90;;;;;;5029042;28;21049;-69
2022/04/03 07:46:37;;;;;;;4.67;0.73;;;9.90;99.90;;;;;;5028922;28;20935;-71
2022/04/03 07:49:04;;;;;;;3.07;0.90;;;10.10;99.90;;;;;;5028595;28;20490;-66
2022/04/03 07:51:31;;;;;;;3.87;0.90;;;10.10;99.90;;;;;;5028863;28;20462;-68
2022/04/03 07:53:59;;;;;;;3.40;0.87;;;10.30;99.90;;;;;;5028969;28;20471;-70
2022/04/03 07:56:26;;;;;;;3.10;0.80;;;10.60;99.90;;;;;;5028968;28;20639;-70
2022/04/03 07:58:53;;;;;;;3.53;0.90;;;10.80;99.70;;;;;;5029021;28;20451;-70
2022/04/03 08:01:21;;;;;;;3.30;1.00;;;10.40;98.30;;;;;;5028517;28;20874;-71
2022/04/03 08:03:48;;;;;;;3.13;0.70;;;10.10;99.10;;;;;;5028809;28;20478;-72
2022/04/03 08:06:16;;;;;;;2.90;0.77;;;10.10;99.30;;;;;;5028813;28;20454;-70
2022/04/03 08:08:43;;;;;;;3.47;0.93;;;10.60;99.80;;;;;;5028753;28;20458;-73
2022/04/03 08:11:11;;;;;;;2.93;0.80;;;11.10;99.60;;;;;;5028843;28;20517;-73
2022/04/03 08:13:38;;;;;;;3.70;1.03;;;11.40;98.20;;;;;;5028689;28;20475;-71
2022/04/03 08:16:06;;;;;;;3.57;1.10;;;11.40;97.30;;;;;;5028685;28;20462;-72
2022/04/03 08:18:34;;;;;;;2.87;0.70;;;11.50;97.10;;;;;;5039806;28;20477;-75
2022/04/03 08:21:01;;;;;;;2.90;0.80;;;11.40;96.30;;;;;;5047201;28;20509;-72
2022/04/03 08:23:28;;;;;;;4.47;0.90;;;11.00;96.30;;;;;;5028596;28;20939;-69
2022/04/03 08:25:56;;;;;;;3.00;0.83;;;11.00;95.60;;;;;;5028691;28;20984;-69
2022/04/03 08:28:23;;;;;;;3.30;0.77;;;10.90;94.50;;;;;;5028682;28;20451;-72
2022/04/03 08:30:50;;;;;;;3.63;0.77;;;11.10;95.40;;;;;;5028888;28;20534;-71
2022/04/03 08:33:17;;;;;;;3.57;0.87;;;11.50;95.30;;;;;;5028520;28;20478;-75
2022/04/03 08:35:47;;;;;;;2.80;0.50;;;11.30;95.10;;;;;;5028706;28;20457;-73
2022/04/03 08:38:14;;;;;;;2.70;0.50;;;11.30;94.80;;;;;;5028664;28;20550;-70
2022/04/03 08:40:44;;;;;;;3.30;0.70;;;11.60;95.50;;;;;;5031972;28;20517;-70
2022/04/03 08:43:12;;;;;;;2.90;0.57;;;11.80;92.50;;;;;;5032310;28;20742;-77
2022/04/03 08:45:39;;;;;;;2.80;0.60;;;11.80;92.70;;;;;;5031872;28;20947;-71
2022/04/03 08:48:09;;;;;;;3.20;0.70;;;11.60;92.50;;;;;;5031886;28;20581;-71
2022/04/03 08:50:38;;;;;;;3.50;0.70;;;11.50;92.60;;;;;;5032294;28;20447;-72
2022/04/03 08:53:09;;;;;;;5.80;0.90;;;11.30;92.80;;;;;;5031963;28;20485;-74
2022/04/03 08:55:37;;;;;;;3.33;0.67;;;11.30;93.80;;;;;;5031691;28;20449;-70
2022/04/03 08:58:04;;;;;;;3.63;0.80;;;11.20;94.10;;;;;;5031922;28;20539;-74
2022/04/03 09:00:32;;;;;;;3.57;0.90;;;11.20;94.70;;;;;;5032099;28;20509;-74
2022/04/03 09:02:59;;;;;;;4.07;0.90;;;11.70;94.00;;;;;;5032004;28;20479;-74
2022/04/03 09:05:37;;;;;;;5.77;2.40;;;11.60;93.90;;;;;;5031875;28;20459;-71
2022/04/03 09:08:06;;;;;;;4.20;0.90;;;12.20;93.90;;;;;;5031884;28;20545;-70
2022/04/03 09:10:34;;;;;;;3.33;1.00;;;12.60;92.70;;;;;;5031896;28;20455;-73
2022/04/03 09:13:01;;;;;;;3.43;1.00;;;12.80;91.30;;;;;;5031627;28;20982;-73
2022/04/03 09:15:30;;;;;;;3.43;0.70;;;12.70;90.10;;;;;;5031766;28;20464;-72
2022/04/03 09:17:59;;;;;;;4.10;1.00;;;12.70;89.80;;;;;;5031529;28;20552;-69
2022/04/03 09:20:28;;;;;;;3.70;0.93;;;12.80;89.60;;;;;;5031324;28;20839;-73
2022/04/03 09:22:56;;;;;;;3.43;0.90;;;12.90;86.50;;;;;;5031074;28;21018;-72
2022/04/03 09:25:29;;;;;;;3.53;0.93;;;12.90;84.60;;;;;;5031459;28;20879;-72
2022/04/03 09:27:58;;;;;;;4.13;0.80;;;13.00;85.90;;;;;;5031729;28;20458;-76
2022/04/03 09:30:31;;;;;;;3.00;0.53;;;13.70;84.90;;;;;;5031365;28;20458;-75
2022/04/03 09:32:59;;;;;;;4.40;0.60;;;13.90;78.90;;;;;;5030804;28;20946;-73
2022/04/03 09:35:28;;;;;;;3.30;1.33;;;13.90;77.80;;;;;;5031131;28;20459;-70
2022/04/03 09:38:10;;;;;;;4.20;1.60;;;13.50;88.10;;;;;;5030961;28;20455;-71
2022/04/03 09:40:40;;;;;;;4.23;1.60;;;13.00;91.40;;;;;;5031166;28;20462;-71
2022/04/03 09:43:18;;;;;;;4.10;1.70;;;12.90;94.90;;;;;;5031127;28;20475;-72
2022/04/03 09:45:47;;;;;;;8.17;1.80;;;12.60;97.90;;;;;;5030705;28;20970;-74
2022/04/03 09:48:26;;;;;;;4.33;1.60;;;12.40;99.90;;;;;;5030672;28;20491;-70
2022/04/03 09:51:03;;;;;;;4.40;1.63;;;12.20;99.90;;;;;;5030407;28;20454;-72
2022/04/03 09:53:42;;;;;;;3.87;1.20;;;12.10;99.90;;;;;;5030981;28;20479;-71
2022/04/03 09:56:12;;;;;;;4.17;1.67;;;12.40;99.90;;;;;;5029606;28;20977;-70
2022/04/03 09:58:46;;;;;;;3.70;1.60;;;12.30;99.90;;;;;;5031208;28;20822;-70
2022/04/03 10:01:24;;;;;;;3.50;1.10;;;12.60;99.90;;;;;;5031009;28;20574;-70
2022/04/03 10:03:52;;;;;;;4.07;1.30;;;12.80;99.90;;;;;;5030672;28;20473;-70
2022/04/03 10:06:19;;;;;;;3.40;1.20;;;12.90;99.90;;;;;;5030471;28;20521;-72
2022/04/03 10:08:48;;;;;;;5.43;1.10;;;13.10;99.70;;;;;;5030293;28;20466;-72
2022/04/03 10:11:17;;;;;;;3.93;1.10;;;13.20;94.40;;;;;;5030815;28;20457;-70
2022/04/03 10:13:44;;;;;;;3.20;0.60;;;13.00;90.80;;;;;;5030884;28;21091;-69
2022/04/03 10:16:12;;;;;;;3.57;0.50;;;12.50;86.20;;;;;;5030399;28;20451;-70
2022/04/03 10:18:40;;;;;;;3.63;1.07;;;12.20;86.60;;;;;;5030977;28;20465;-69
2022/04/03 10:21:12;;;;;;;3.70;1.07;;;12.30;93.00;;;;;;5030217;28;20487;-71
2022/04/03 10:23:43;;;;;;;7.20;1.60;;;12.60;96.70;;;;;;5030316;28;20471;-71
2022/04/03 10:26:12;;;;;;;5.10;1.70;;;12.90;96.90;;;;;;5030731;28;20506;-73
2022/04/03 10:28:45;;;;;;;4.20;2.03;;;12.90;97.50;;;;;;5030398;28;20459;-72
2022/04/03 10:31:17;;;;;;;3.60;1.47;;;13.20;98.30;;;;;;5030548;28;20943;-71
2022/04/03 10:33:45;;;;;;;3.67;1.40;;;13.40;96.70;;;;;;5030245;28;20479;-71
2022/04/03 10:36:14;;;;;;;5.03;1.93;;;13.70;96.20;;;;;;5030312;28;20490;-70
2022/04/03 10:38:44;;;;;;;4.00;1.70;;;13.60;94.60;;;;;;5030209;28;20861;-70
2022/04/03 10:41:28;;;;;;;3.90;2.00;;;13.70;92.10;;;;;;5030345;28;20573;-72
2022/04/03 10:44:15;;;;;;;4.27;1.53;;;13.70;92.90;;;;;;5029766;28;20533;-73
2022/04/03 10:47:19;;;;;;;3.30;1.50;;;13.80;93.10;;;;;;5030086;28;20455;-70
2022/04/03 10:50:00;;;;;;;5.17;1.60;;;14.00;92.60;;;;;;5029406;28;20607;-72
2022/04/03 10:52:48;;;;;;;3.97;1.47;;;14.20;92.20;;;;;;5029844;28;20509;-69
2022/04/03 10:55:16;;;;;;;4.73;1.40;;;14.40;90.40;;;;;;5029517;28;20454;-68
2022/04/03 10:57:45;;;;;;;4.80;1.90;;;14.30;87.90;;;;;;5030289;28;20453;-68
2022/04/03 11:00:35;;;;;;;3.90;1.60;;;13.90;89.10;;;;;;5030051;28;20900;-71
2022/04/03 11:03:24;;;;;;;5.23;1.93;;;13.60;88.00;;;;;;5029121;28;20495;-72
2022/04/03 11:05:53;;;;;;;4.40;1.60;;;13.30;89.40;;;;;;5029748;28;20788;-68
2022/04/03 11:08:44;;;;;;;5.20;1.73;;;13.00;92.20;;;;;;5029292;28;20458;-67
2022/04/03 11:11:11;;;;;;;4.27;1.87;;;12.70;96.50;;;;;;5029737;28;21008;-67
2022/04/03 11:13:40;;;;;;;5.27;2.00;;;12.60;97.60;;;;;;5029699;28;20475;-68
2022/04/03 11:16:10;;;;;;;4.40;2.00;;;12.40;99.60;;;;;;5029508;28;20821;-68
2022/04/03 11:18:39;;;;;;;4.30;2.17;;;12.10;99.90;;;;;;5029819;28;20454;-68
2022/04/03 11:21:09;;;;;;;3.93;1.67;;;11.90;99.90;;;;;;5029317;28;20454;-67
2022/04/03 11:23:37;;;;;;;5.00;2.00;;;12.00;99.90;;;;;;5029358;28;20474;-69
2022/04/03 11:26:05;;;;;;;3.93;1.70;;;12.20;99.90;;;;;;5029484;28;20459;-68
2022/04/03 11:28:34;;;;;;;4.03;1.57;;;12.10;99.90;;;;;;5029866;28;20454;-70
2022/04/03 11:31:02;;;;;;;4.27;1.70;;;12.10;99.90;;;;;;5029284;28;20439;-69
2022/04/03 11:33:31;;;;;;;4.00;2.13;;;12.10;98.90;;;;;;5029107;28;20478;-69
2022/04/03 11:36:04;;;;;;;3.80;1.87;;;11.90;99.00;;;;;;5029333;28;20454;-67
2022/04/03 11:38:36;;;;;;;5.20;2.40;;;12.00;99.90;;;;;;5029166;28;20537;-68
2022/04/03 11:41:05;;;;;;;4.53;2.03;;;12.00;99.70;;;;;;5029248;28;20493;-67
2022/04/03 11:43:33;;;;;;;3.90;2.23;;;12.00;99.20;;;;;;5029130;28;20483;-71
2022/04/03 11:46:01;;;;;;;5.60;2.17;;;11.90;98.40;;;;;;5028785;28;20450;-69
2022/04/03 11:48:32;;;;;;;5.13;2.27;;;11.90;99.90;;;;;;5028752;28;20490;-69
2022/04/03 11:51:11;;;;;;;4.30;2.20;;;12.00;99.90;;;;;;5029260;28;20450;-69
2022/04/03 11:53:39;;;;;;;3.77;1.90;;;11.80;99.90;;;;;;5029092;28;20478;-69
2022/04/03 11:56:11;;;;;;;4.40;2.00;;;11.70;99.70;;;;;;5029134;28;20454;-69
2022/04/03 11:58:40;;;;;;;4.70;2.60;;;11.50;99.90;;;;;;5029048;28;20868;-69
2022/04/03 12:01:07;;;;;;;4.70;2.60;;;11.30;99.90;;;;;;5029043;28;20497;-71
2022/04/03 12:03:37;;;;;;;4.63;3.30;;;11.20;99.90;;;;;;5028998;28;20478;-68
2022/04/03 12:06:11;;;;;;;4.83;2.67;;;11.00;99.90;;;;;;5028847;28;20465;-68
2022/04/03 12:08:39;;;;;;;5.50;3.40;;;10.80;99.90;;;;;;5028791;28;20459;-68
2022/04/03 12:11:16;;;;;;;6.00;2.73;;;10.70;99.90;;;;;;5028830;28;20458;-71
2022/04/03 12:13:43;;;;;;;5.17;3.17;;;10.70;99.90;;;;;;5030742;28;20567;-70
2022/04/03 12:16:15;;;;;;;6.47;3.40;;;10.40;99.90;;;;;;5032907;28;20457;-71
2022/04/03 12:19:06;;;;;;;5.83;3.80;;;10.30;99.90;;;;;;5032413;28;20459;-69
2022/04/03 12:21:41;;;;;;;5.67;3.37;;;10.20;99.90;;;;;;5029345;28;20605;-72
2022/04/03 12:24:11;;;;;;;6.67;3.13;;;10.50;99.90;;;;;;5032527;28;20472;-72
2022/04/03 12:26:39;;;;;;;5.63;3.27;;;10.80;99.90;;;;;;5032717;28;20466;-71
2022/04/03 12:29:07;;;;;;;6.30;3.73;;;10.90;99.90;;;;;;5032409;28;20450;-70
2022/04/03 12:31:37;;;;;;;5.30;3.03;;;10.90;99.90;;;;;;5032677;28;20462;-71
2022/04/03 12:34:11;;;;;;;5.10;2.73;;;10.90;99.90;;;;;;5032177;28;20485;-69
2022/04/03 12:36:43;;;;;;;5.87;3.70;;;11.10;99.90;;;;;;5032288;28;20494;-72
2022/04/03 12:39:40;;;;;;;5.50;3.70;;;11.20;99.90;;;;;;5032322;28;20552;-69
2022/04/03 12:42:17;;;;;;;5.13;3.03;;;11.40;99.90;;;;;;5032374;28;20500;-70
2022/04/03 12:44:46;;;;;;;6.23;4.30;;;11.40;99.90;;;;;;5032205;28;20460;-70
2022/04/03 12:47:15;;;;;;;5.30;3.10;;;11.30;99.90;;;;;;5032527;28;20462;-69
2022/04/03 12:49:46;;;;;;;6.20;3.90;;;11.30;99.90;;;;;;5031916;28;20834;-70
2022/04/03 12:52:20;;;;;;;5.70;3.50;;;11.10;99.90;;;;;;5032280;28;20458;-71
2022/04/03 12:54:47;;;;;;;6.23;3.80;;;11.20;99.90;;;;;;5031923;28;20450;-72
2022/04/03 13:00:16;;;;;;;6.77;3.80;;;11.00;99.90;;;;;;5032219;28;20453;-69
2022/04/03 13:02:45;;;;;;;5.30;3.90;;;11.10;99.90;;;;;;5032026;28;20522;-70